sensor_id;sensor_type;location;lat;lon;timestamp;temperature;humidity
39021;DHT22;25188;51.958;5.842;2024-03-02T00:00:14;9.30;81.70
39021;DHT22;25188;51.958;5.842;2024-03-02T00:02:41;9.30;81.80
39021;DHT22;25188;51.958;5.842;2024-03-02T00:05:07;9.30;81.80
39021;DHT22;25188;51.958;5.842;2024-03-02T00:07:33;9.30;81.80
39021;DHT22;25188;51.958;5.842;2024-03-02T00:10:00;9.30;81.80
39021;DHT22;25188;51.958;5.842;2024-03-02T00:12:26;9.30;81.80
39021;DHT22;25188;51.958;5.842;2024-03-02T00:14:52;9.30;81.80
39021;DHT22;25188;51.958;5.842;2024-03-02T00:17:24;9.30;81.80
39021;DHT22;25188;51.958;5.842;2024-03-02T00:19:53;9.30;81.90
39021;DHT22;25188;51.958;5.842;2024-03-02T00:22:23;9.30;81.90
39021;DHT22;25188;51.958;5.842;2024-03-02T00:24:49;9.30;81.80
39021;DHT22;25188;51.958;5.842;2024-03-02T00:27:17;9.30;81.90
39021;DHT22;25188;51.958;5.842;2024-03-02T00:29:43;9.30;82.00
39021;DHT22;25188;51.958;5.842;2024-03-02T00:32:13;9.30;82.00
39021;DHT22;25188;51.958;5.842;2024-03-02T00:34:39;9.30;82.00
39021;DHT22;25188;51.958;5.842;2024-03-02T00:37:05;9.40;82.00
39021;DHT22;25188;51.958;5.842;2024-03-02T00:39:31;9.40;81.90
39021;DHT22;25188;51.958;5.842;2024-03-02T00:41:57;9.40;82.00
39021;DHT22;25188;51.958;5.842;2024-03-02T00:44:25;9.40;82.10
39021;DHT22;25188;51.958;5.842;2024-03-02T00:46:52;9.40;82.10
39021;DHT22;25188;51.958;5.842;2024-03-02T00:49:21;9.40;82.00
39021;DHT22;25188;51.958;5.842;2024-03-02T00:51:52;9.50;82.10
39021;DHT22;25188;51.958;5.842;2024-03-02T00:54:23;9.40;82.10
39021;DHT22;25188;51.958;5.842;2024-03-02T00:56:50;9.40;82.00
39021;DHT22;25188;51.958;5.842;2024-03-02T00:59:16;9.50;82.20
39021;DHT22;25188;51.958;5.842;2024-03-02T01:01:42;9.50;82.90
39021;DHT22;25188;51.958;5.842;2024-03-02T01:04:09;9.50;82.30
39021;DHT22;25188;51.958;5.842;2024-03-02T01:06:35;9.50;82.30
39021;DHT22;25188;51.958;5.842;2024-03-02T01:09:01;9.50;82.20
39021;DHT22;25188;51.958;5.842;2024-03-02T01:11:28;9.50;82.30
39021;DHT22;25188;51.958;5.842;2024-03-02T01:13:54;9.50;82.40
39021;DHT22;25188;51.958;5.842;2024-03-02T01:16:19;9.50;82.40
39021;DHT22;25188;51.958;5.842;2024-03-02T01:18:45;9.50;82.10
39021;DHT22;25188;51.958;5.842;2024-03-02T01:21:11;9.50;82.30
39021;DHT22;25188;51.958;5.842;2024-03-02T01:23:37;9.40;82.50
39021;DHT22;25188;51.958;5.842;2024-03-02T01:26:03;9.40;82.90
39021;DHT22;25188;51.958;5.842;2024-03-02T01:28:29;9.40;83.70
39021;DHT22;25188;51.958;5.842;2024-03-02T01:30:54;9.40;83.70
39021;DHT22;25188;51.958;5.842;2024-03-02T01:33:20;9.40;83.70
39021;DHT22;25188;51.958;5.842;2024-03-02T01:35:46;9.40;84.00
39021;DHT22;25188;51.958;5.842;2024-03-02T01:38:13;9.40;84.10
39021;DHT22;25188;51.958;5.842;2024-03-02T01:40:39;9.40;84.20
39021;DHT22;25188;51.958;5.842;2024-03-02T01:43:05;9.40;84.60
39021;DHT22;25188;51.958;5.842;2024-03-02T01:45:32;9.40;85.00
39021;DHT22;25188;51.958;5.842;2024-03-02T01:47:57;9.40;84.90
39021;DHT22;25188;51.958;5.842;2024-03-02T01:50:31;9.30;85.10
39021;DHT22;25188;51.958;5.842;2024-03-02T01:52:58;9.40;85.30
39021;DHT22;25188;51.958;5.842;2024-03-02T01:55:24;9.40;85.40
39021;DHT22;25188;51.958;5.842;2024-03-02T01:57:51;9.40;85.30
39021;DHT22;25188;51.958;5.842;2024-03-02T02:00:18;9.40;85.40
39021;DHT22;25188;51.958;5.842;2024-03-02T02:02:45;9.40;85.90
39021;DHT22;25188;51.958;5.842;2024-03-02T02:05:11;9.40;86.00
39021;DHT22;25188;51.958;5.842;2024-03-02T02:07:38;9.30;85.90
39021;DHT22;25188;51.958;5.842;2024-03-02T02:10:04;9.30;86.00
39021;DHT22;25188;51.958;5.842;2024-03-02T02:12:29;9.30;86.10
39021;DHT22;25188;51.958;5.842;2024-03-02T02:14:55;9.30;86.20
39021;DHT22;25188;51.958;5.842;2024-03-02T02:17:21;9.30;86.40
39021;DHT22;25188;51.958;5.842;2024-03-02T02:19:46;9.30;86.40
39021;DHT22;25188;51.958;5.842;2024-03-02T02:22:13;9.20;86.30
39021;DHT22;25188;51.958;5.842;2024-03-02T02:24:42;9.20;86.40
39021;DHT22;25188;51.958;5.842;2024-03-02T02:27:08;9.20;86.50
39021;DHT22;25188;51.958;5.842;2024-03-02T02:29:34;9.20;86.80
39021;DHT22;25188;51.958;5.842;2024-03-02T02:32:00;9.20;86.70
39021;DHT22;25188;51.958;5.842;2024-03-02T02:34:26;9.20;86.70
39021;DHT22;25188;51.958;5.842;2024-03-02T02:36:52;9.20;86.80
39021;DHT22;25188;51.958;5.842;2024-03-02T02:39:22;9.20;86.70
39021;DHT22;25188;51.958;5.842;2024-03-02T02:41:48;9.20;86.80
39021;DHT22;25188;51.958;5.842;2024-03-02T02:44:14;9.20;86.80
39021;DHT22;25188;51.958;5.842;2024-03-02T02:46:40;9.20;86.90
39021;DHT22;25188;51.958;5.842;2024-03-02T02:49:06;9.20;87.00
39021;DHT22;25188;51.958;5.842;2024-03-02T02:51:33;9.20;87.00
39021;DHT22;25188;51.958;5.842;2024-03-02T02:53:58;9.20;87.10
39021;DHT22;25188;51.958;5.842;2024-03-02T02:56:24;9.10;87.20
39021;DHT22;25188;51.958;5.842;2024-03-02T02:58:50;9.10;87.40
39021;DHT22;25188;51.958;5.842;2024-03-02T03:01:16;9.20;87.40
39021;DHT22;25188;51.958;5.842;2024-03-02T03:03:43;9.10;87.40
39021;DHT22;25188;51.958;5.842;2024-03-02T03:06:10;9.10;87.50
39021;DHT22;25188;51.958;5.842;2024-03-02T03:08:35;9.10;87.60
39021;DHT22;25188;51.958;5.842;2024-03-02T03:11:01;9.10;87.80
39021;DHT22;25188;51.958;5.842;2024-03-02T03:13:27;9.10;87.80
39021;DHT22;25188;51.958;5.842;2024-03-02T03:15:53;9.00;88.10
39021;DHT22;25188;51.958;5.842;2024-03-02T03:18:18;9.00;88.20
39021;DHT22;25188;51.958;5.842;2024-03-02T03:20:44;8.90;88.40
39021;DHT22;25188;51.958;5.842;2024-03-02T03:23:10;8.90;88.50
39021;DHT22;25188;51.958;5.842;2024-03-02T03:25:41;8.90;88.40
39021;DHT22;25188;51.958;5.842;2024-03-02T03:28:07;8.90;88.70
39021;DHT22;25188;51.958;5.842;2024-03-02T03:30:38;8.90;88.90
39021;DHT22;25188;51.958;5.842;2024-03-02T03:33:04;8.80;89.20
39021;DHT22;25188;51.958;5.842;2024-03-02T03:35:32;8.80;89.80
39021;DHT22;25188;51.958;5.842;2024-03-02T03:37:58;8.80;89.80
39021;DHT22;25188;51.958;5.842;2024-03-02T03:40:24;8.80;89.90
39021;DHT22;25188;51.958;5.842;2024-03-02T03:42:50;8.70;90.00
39021;DHT22;25188;51.958;5.842;2024-03-02T03:45:16;8.70;90.10
39021;DHT22;25188;51.958;5.842;2024-03-02T03:47:42;8.70;90.10
39021;DHT22;25188;51.958;5.842;2024-03-02T03:50:08;8.70;90.20
39021;DHT22;25188;51.958;5.842;2024-03-02T03:52:33;8.70;90.30
39021;DHT22;25188;51.958;5.842;2024-03-02T03:55:00;8.70;90.20
39021;DHT22;25188;51.958;5.842;2024-03-02T03:57:26;8.70;90.40
39021;DHT22;25188;51.958;5.842;2024-03-02T03:59:53;8.60;90.30
39021;DHT22;25188;51.958;5.842;2024-03-02T04:02:19;8.60;90.40
39021;DHT22;25188;51.958;5.842;2024-03-02T04:04:45;8.60;90.50
39021;DHT22;25188;51.958;5.842;2024-03-02T04:07:10;8.60;90.60
39021;DHT22;25188;51.958;5.842;2024-03-02T04:09:36;8.60;90.50
39021;DHT22;25188;51.958;5.842;2024-03-02T04:12:02;8.60;91.10
39021;DHT22;25188;51.958;5.842;2024-03-02T04:14:27;8.60;90.90
39021;DHT22;25188;51.958;5.842;2024-03-02T04:16:53;8.60;90.80
39021;DHT22;25188;51.958;5.842;2024-03-02T04:19:19;8.60;90.90
39021;DHT22;25188;51.958;5.842;2024-03-02T04:21:44;8.60;90.90
39021;DHT22;25188;51.958;5.842;2024-03-02T04:24:10;8.60;90.90
39021;DHT22;25188;51.958;5.842;2024-03-02T04:26:36;8.50;90.90
39021;DHT22;25188;51.958;5.842;2024-03-02T04:29:01;8.50;90.90
39021;DHT22;25188;51.958;5.842;2024-03-02T04:31:27;8.50;90.90
39021;DHT22;25188;51.958;5.842;2024-03-02T04:33:53;8.50;91.10
39021;DHT22;25188;51.958;5.842;2024-03-02T04:36:19;8.50;90.90
39021;DHT22;25188;51.958;5.842;2024-03-02T04:38:45;8.50;90.90
39021;DHT22;25188;51.958;5.842;2024-03-02T04:41:11;8.50;91.00
39021;DHT22;25188;51.958;5.842;2024-03-02T04:43:36;8.40;90.90
39021;DHT22;25188;51.958;5.842;2024-03-02T04:46:02;8.40;90.80
39021;DHT22;25188;51.958;5.842;2024-03-02T04:48:28;8.40;90.90
39021;DHT22;25188;51.958;5.842;2024-03-02T04:50:53;8.30;90.90
39021;DHT22;25188;51.958;5.842;2024-03-02T04:53:19;8.30;90.90
39021;DHT22;25188;51.958;5.842;2024-03-02T04:55:45;8.30;91.00
39021;DHT22;25188;51.958;5.842;2024-03-02T04:58:23;8.20;91.00
39021;DHT22;25188;51.958;5.842;2024-03-02T05:00:49;8.20;91.00
39021;DHT22;25188;51.958;5.842;2024-03-02T05:03:14;8.10;91.10
39021;DHT22;25188;51.958;5.842;2024-03-02T05:05:40;8.10;91.20
39021;DHT22;25188;51.958;5.842;2024-03-02T05:08:06;8.10;91.30
39021;DHT22;25188;51.958;5.842;2024-03-02T05:10:32;8.00;91.40
39021;DHT22;25188;51.958;5.842;2024-03-02T05:12:57;8.00;91.40
39021;DHT22;25188;51.958;5.842;2024-03-02T05:15:24;8.00;91.50
39021;DHT22;25188;51.958;5.842;2024-03-02T05:17:51;8.00;91.50
39021;DHT22;25188;51.958;5.842;2024-03-02T05:20:17;8.00;91.70
39021;DHT22;25188;51.958;5.842;2024-03-02T05:22:42;7.90;91.60
39021;DHT22;25188;51.958;5.842;2024-03-02T05:25:08;7.90;91.70
39021;DHT22;25188;51.958;5.842;2024-03-02T05:27:37;7.90;91.70
39021;DHT22;25188;51.958;5.842;2024-03-02T05:30:03;7.90;91.90
39021;DHT22;25188;51.958;5.842;2024-03-02T05:32:32;7.90;91.90
39021;DHT22;25188;51.958;5.842;2024-03-02T05:34:57;7.90;92.00
39021;DHT22;25188;51.958;5.842;2024-03-02T05:37:23;7.80;91.90
39021;DHT22;25188;51.958;5.842;2024-03-02T05:39:48;7.80;92.00
39021;DHT22;25188;51.958;5.842;2024-03-02T05:42:14;7.80;92.10
39021;DHT22;25188;51.958;5.842;2024-03-02T05:44:42;7.80;92.00
39021;DHT22;25188;51.958;5.842;2024-03-02T05:47:07;7.70;91.90
39021;DHT22;25188;51.958;5.842;2024-03-02T05:49:36;7.70;91.90
39021;DHT22;25188;51.958;5.842;2024-03-02T05:52:01;7.70;92.00
39021;DHT22;25188;51.958;5.842;2024-03-02T05:54:28;7.60;92.00
39021;DHT22;25188;51.958;5.842;2024-03-02T05:56:54;7.60;92.00
39021;DHT22;25188;51.958;5.842;2024-03-02T05:59:19;7.60;92.10
39021;DHT22;25188;51.958;5.842;2024-03-02T06:01:46;7.60;92.10
39021;DHT22;25188;51.958;5.842;2024-03-02T06:04:12;7.50;92.10
39021;DHT22;25188;51.958;5.842;2024-03-02T06:06:39;7.50;92.10
39021;DHT22;25188;51.958;5.842;2024-03-02T06:09:05;7.50;92.10
39021;DHT22;25188;51.958;5.842;2024-03-02T06:11:34;7.50;92.10
39021;DHT22;25188;51.958;5.842;2024-03-02T06:13:59;7.50;92.10
39021;DHT22;25188;51.958;5.842;2024-03-02T06:16:25;7.40;92.00
39021;DHT22;25188;51.958;5.842;2024-03-02T06:18:51;7.40;92.10
39021;DHT22;25188;51.958;5.842;2024-03-02T06:21:17;7.30;92.00
39021;DHT22;25188;51.958;5.842;2024-03-02T06:23:43;7.30;92.00
39021;DHT22;25188;51.958;5.842;2024-03-02T06:26:09;7.30;92.00
39021;DHT22;25188;51.958;5.842;2024-03-02T06:28:35;7.30;92.10
39021;DHT22;25188;51.958;5.842;2024-03-02T06:31:02;7.30;92.10
39021;DHT22;25188;51.958;5.842;2024-03-02T06:33:28;7.20;92.20
39021;DHT22;25188;51.958;5.842;2024-03-02T06:35:54;7.20;92.20
39021;DHT22;25188;51.958;5.842;2024-03-02T06:38:19;7.20;92.20
39021;DHT22;25188;51.958;5.842;2024-03-02T06:40:45;7.20;92.20
39021;DHT22;25188;51.958;5.842;2024-03-02T06:43:11;7.20;92.30
39021;DHT22;25188;51.958;5.842;2024-03-02T06:45:36;7.20;92.40
39021;DHT22;25188;51.958;5.842;2024-03-02T06:48:02;7.30;92.50
39021;DHT22;25188;51.958;5.842;2024-03-02T06:50:28;7.30;92.50
39021;DHT22;25188;51.958;5.842;2024-03-02T06:52:54;7.30;92.60
39021;DHT22;25188;51.958;5.842;2024-03-02T06:55:21;7.30;92.60
39021;DHT22;25188;51.958;5.842;2024-03-02T06:57:47;7.30;92.60
39021;DHT22;25188;51.958;5.842;2024-03-02T07:00:13;7.40;92.70
39021;DHT22;25188;51.958;5.842;2024-03-02T07:02:39;7.40;92.80
39021;DHT22;25188;51.958;5.842;2024-03-02T07:05:08;7.50;92.80
39021;DHT22;25188;51.958;5.842;2024-03-02T07:07:34;7.50;92.80
39021;DHT22;25188;51.958;5.842;2024-03-02T07:10:00;7.50;92.80
39021;DHT22;25188;51.958;5.842;2024-03-02T07:12:26;7.50;92.80
39021;DHT22;25188;51.958;5.842;2024-03-02T07:14:52;7.50;92.90
39021;DHT22;25188;51.958;5.842;2024-03-02T07:17:31;7.50;92.90
39021;DHT22;25188;51.958;5.842;2024-03-02T07:19:57;7.50;92.90
39021;DHT22;25188;51.958;5.842;2024-03-02T07:22:23;7.50;92.90
39021;DHT22;25188;51.958;5.842;2024-03-02T07:24:49;7.60;92.90
39021;DHT22;25188;51.958;5.842;2024-03-02T07:27:15;7.50;93.00
39021;DHT22;25188;51.958;5.842;2024-03-02T07:29:41;7.60;93.00
39021;DHT22;25188;51.958;5.842;2024-03-02T07:32:08;7.60;93.00
39021;DHT22;25188;51.958;5.842;2024-03-02T07:34:34;7.60;93.00
39021;DHT22;25188;51.958;5.842;2024-03-02T07:37:00;7.70;93.40
39021;DHT22;25188;51.958;5.842;2024-03-02T07:39:26;7.80;93.20
39021;DHT22;25188;51.958;5.842;2024-03-02T07:41:52;7.80;93.30
39021;DHT22;25188;51.958;5.842;2024-03-02T07:44:18;7.80;93.20
39021;DHT22;25188;51.958;5.842;2024-03-02T07:46:45;7.90;93.20
39021;DHT22;25188;51.958;5.842;2024-03-02T07:49:20;7.90;93.20
39021;DHT22;25188;51.958;5.842;2024-03-02T07:51:45;7.90;93.10
39021;DHT22;25188;51.958;5.842;2024-03-02T07:54:11;8.00;93.20
39021;DHT22;25188;51.958;5.842;2024-03-02T07:56:37;8.10;93.20
39021;DHT22;25188;51.958;5.842;2024-03-02T07:59:03;8.20;93.20
39021;DHT22;25188;51.958;5.842;2024-03-02T08:01:32;8.30;93.20
39021;DHT22;25188;51.958;5.842;2024-03-02T08:04:00;8.30;93.10
39021;DHT22;25188;51.958;5.842;2024-03-02T08:06:29;8.40;93.00
39021;DHT22;25188;51.958;5.842;2024-03-02T08:08:59;8.40;93.00
39021;DHT22;25188;51.958;5.842;2024-03-02T08:11:25;8.50;92.90
39021;DHT22;25188;51.958;5.842;2024-03-02T08:13:52;8.60;92.70
39021;DHT22;25188;51.958;5.842;2024-03-02T08:16:23;8.70;92.60
39021;DHT22;25188;51.958;5.842;2024-03-02T08:18:49;8.70;92.70
39021;DHT22;25188;51.958;5.842;2024-03-02T08:21:15;8.80;92.60
39021;DHT22;25188;51.958;5.842;2024-03-02T08:23:42;8.90;92.50
39021;DHT22;25188;51.958;5.842;2024-03-02T08:26:08;8.90;92.40
39021;DHT22;25188;51.958;5.842;2024-03-02T08:28:34;8.90;92.00
39021;DHT22;25188;51.958;5.842;2024-03-02T08:31:00;9.00;91.70
39021;DHT22;25188;51.958;5.842;2024-03-02T08:33:26;9.00;91.60
39021;DHT22;25188;51.958;5.842;2024-03-02T08:35:52;9.00;91.50
39021;DHT22;25188;51.958;5.842;2024-03-02T08:38:17;9.00;91.30
39021;DHT22;25188;51.958;5.842;2024-03-02T08:40:44;9.00;91.30
39021;DHT22;25188;51.958;5.842;2024-03-02T08:43:10;9.10;91.10
39021;DHT22;25188;51.958;5.842;2024-03-02T08:45:37;9.10;90.90
39021;DHT22;25188;51.958;5.842;2024-03-02T08:48:06;9.10;90.90
39021;DHT22;25188;51.958;5.842;2024-03-02T08:50:32;9.10;90.80
39021;DHT22;25188;51.958;5.842;2024-03-02T08:52:58;9.10;90.80
39021;DHT22;25188;51.958;5.842;2024-03-02T08:55:23;9.10;90.70
39021;DHT22;25188;51.958;5.842;2024-03-02T08:57:49;9.10;90.50
39021;DHT22;25188;51.958;5.842;2024-03-02T09:00:16;9.20;90.40
39021;DHT22;25188;51.958;5.842;2024-03-02T09:02:44;9.20;90.30
39021;DHT22;25188;51.958;5.842;2024-03-02T09:05:10;9.20;90.00
39021;DHT22;25188;51.958;5.842;2024-03-02T09:07:35;9.30;89.80
39021;DHT22;25188;51.958;5.842;2024-03-02T09:10:01;9.30;90.00
39021;DHT22;25188;51.958;5.842;2024-03-02T09:12:27;9.40;89.20
39021;DHT22;25188;51.958;5.842;2024-03-02T09:14:52;9.40;89.80
39021;DHT22;25188;51.958;5.842;2024-03-02T09:17:18;9.50;89.00
39021;DHT22;25188;51.958;5.842;2024-03-02T09:19:44;9.50;88.70
39021;DHT22;25188;51.958;5.842;2024-03-02T09:22:09;9.50;88.20
39021;DHT22;25188;51.958;5.842;2024-03-02T09:24:35;9.50;88.10
39021;DHT22;25188;51.958;5.842;2024-03-02T09:27:01;9.60;87.30
39021;DHT22;25188;51.958;5.842;2024-03-02T09:29:26;9.60;87.10
39021;DHT22;25188;51.958;5.842;2024-03-02T09:31:52;9.60;86.30
39021;DHT22;25188;51.958;5.842;2024-03-02T09:34:18;9.70;86.50
39021;DHT22;25188;51.958;5.842;2024-03-02T09:36:43;9.70;86.70
39021;DHT22;25188;51.958;5.842;2024-03-02T09:39:09;9.70;87.00
39021;DHT22;25188;51.958;5.842;2024-03-02T09:41:38;9.80;86.70
39021;DHT22;25188;51.958;5.842;2024-03-02T09:44:07;9.80;85.80
39021;DHT22;25188;51.958;5.842;2024-03-02T09:46:33;9.90;86.10
39021;DHT22;25188;51.958;5.842;2024-03-02T09:49:01;9.90;85.60
39021;DHT22;25188;51.958;5.842;2024-03-02T09:51:26;9.90;85.00
39021;DHT22;25188;51.958;5.842;2024-03-02T09:53:52;10.00;85.60
39021;DHT22;25188;51.958;5.842;2024-03-02T09:56:20;10.10;85.60
39021;DHT22;25188;51.958;5.842;2024-03-02T09:58:46;10.20;84.20
39021;DHT22;25188;51.958;5.842;2024-03-02T10:01:12;10.20;83.50
39021;DHT22;25188;51.958;5.842;2024-03-02T10:03:37;10.30;83.70
39021;DHT22;25188;51.958;5.842;2024-03-02T10:06:24;10.50;84.10
39021;DHT22;25188;51.958;5.842;2024-03-02T10:08:50;10.60;83.90
39021;DHT22;25188;51.958;5.842;2024-03-02T10:11:33;11.00;84.20
39021;DHT22;25188;51.958;5.842;2024-03-02T10:14:08;11.40;84.20
39021;DHT22;25188;51.958;5.842;2024-03-02T10:16:39;11.80;82.70
39021;DHT22;25188;51.958;5.842;2024-03-02T10:19:24;12.20;81.10
39021;DHT22;25188;51.958;5.842;2024-03-02T10:21:50;12.70;80.30
39021;DHT22;25188;51.958;5.842;2024-03-02T10:24:16;13.40;81.40
39021;DHT22;25188;51.958;5.842;2024-03-02T10:26:42;14.00;79.70
39021;DHT22;25188;51.958;5.842;2024-03-02T10:29:12;14.60;77.50
39021;DHT22;25188;51.958;5.842;2024-03-02T10:31:39;15.20;76.30
39021;DHT22;25188;51.958;5.842;2024-03-02T10:34:06;15.80;75.70
39021;DHT22;25188;51.958;5.842;2024-03-02T10:36:33;16.50;73.50
39021;DHT22;25188;51.958;5.842;2024-03-02T10:39:02;16.90;71.90
39021;DHT22;25188;51.958;5.842;2024-03-02T10:41:35;17.40;68.90
39021;DHT22;25188;51.958;5.842;2024-03-02T10:44:06;17.80;66.50
39021;DHT22;25188;51.958;5.842;2024-03-02T10:46:34;18.20;64.90
39021;DHT22;25188;51.958;5.842;2024-03-02T10:49:01;18.60;63.60
39021;DHT22;25188;51.958;5.842;2024-03-02T10:51:28;18.90;64.40
39021;DHT22;25188;51.958;5.842;2024-03-02T10:54:00;19.40;64.40
39021;DHT22;25188;51.958;5.842;2024-03-02T10:56:36;19.90;64.20
39021;DHT22;25188;51.958;5.842;2024-03-02T10:59:35;20.40;62.60
39021;DHT22;25188;51.958;5.842;2024-03-02T11:02:03;20.70;58.60
39021;DHT22;25188;51.958;5.842;2024-03-02T11:04:30;21.00;58.50
39021;DHT22;25188;51.958;5.842;2024-03-02T11:07:05;21.10;56.30
39021;DHT22;25188;51.958;5.842;2024-03-02T11:09:34;21.30;55.80
39021;DHT22;25188;51.958;5.842;2024-03-02T11:14:32;21.70;55.60
39021;DHT22;25188;51.958;5.842;2024-03-02T11:17:01;22.00;54.30
39021;DHT22;25188;51.958;5.842;2024-03-02T11:19:28;22.10;53.80
39021;DHT22;25188;51.958;5.842;2024-03-02T11:21:54;22.30;51.40
39021;DHT22;25188;51.958;5.842;2024-03-02T11:27:05;22.50;50.10
39021;DHT22;25188;51.958;5.842;2024-03-02T11:32:21;22.70;49.70
39021;DHT22;25188;51.958;5.842;2024-03-02T11:34:48;23.00;48.90
39021;DHT22;25188;51.958;5.842;2024-03-02T11:37:16;23.20;49.60
39021;DHT22;25188;51.958;5.842;2024-03-02T11:39:44;23.50;48.50
39021;DHT22;25188;51.958;5.842;2024-03-02T11:42:11;23.70;47.80
39021;DHT22;25188;51.958;5.842;2024-03-02T11:44:49;23.90;47.40
39021;DHT22;25188;51.958;5.842;2024-03-02T11:47:16;24.00;46.80
39021;DHT22;25188;51.958;5.842;2024-03-02T11:49:50;24.40;46.90
39021;DHT22;25188;51.958;5.842;2024-03-02T11:52:20;24.60;45.90
39021;DHT22;25188;51.958;5.842;2024-03-02T11:54:48;24.80;46.00
39021;DHT22;25188;51.958;5.842;2024-03-02T11:57:21;24.90;44.30
39021;DHT22;25188;51.958;5.842;2024-03-02T11:59:51;24.80;44.30
39021;DHT22;25188;51.958;5.842;2024-03-02T12:02:19;24.80;44.30
39021;DHT22;25188;51.958;5.842;2024-03-02T12:04:46;25.10;44.20
39021;DHT22;25188;51.958;5.842;2024-03-02T12:07:22;25.10;44.00
39021;DHT22;25188;51.958;5.842;2024-03-02T12:09:49;25.20;42.80
39021;DHT22;25188;51.958;5.842;2024-03-02T12:12:15;25.40;43.00
39021;DHT22;25188;51.958;5.842;2024-03-02T12:14:50;25.60;42.20
39021;DHT22;25188;51.958;5.842;2024-03-02T12:17:17;25.60;42.00
39021;DHT22;25188;51.958;5.842;2024-03-02T12:19:42;25.80;41.70
39021;DHT22;25188;51.958;5.842;2024-03-02T12:22:08;25.90;41.70
39021;DHT22;25188;51.958;5.842;2024-03-02T12:24:34;26.10;41.90
39021;DHT22;25188;51.958;5.842;2024-03-02T12:27:00;26.30;41.50
39021;DHT22;25188;51.958;5.842;2024-03-02T12:29:29;26.50;40.90
39021;DHT22;25188;51.958;5.842;2024-03-02T12:31:55;26.60;39.90
39021;DHT22;25188;51.958;5.842;2024-03-02T12:34:21;26.50;39.80
39021;DHT22;25188;51.958;5.842;2024-03-02T12:36:48;26.50;39.20
39021;DHT22;25188;51.958;5.842;2024-03-02T12:39:18;26.20;38.70
39021;DHT22;25188;51.958;5.842;2024-03-02T12:41:48;25.80;37.90
39021;DHT22;25188;51.958;5.842;2024-03-02T12:44:16;25.30;38.10
39021;DHT22;25188;51.958;5.842;2024-03-02T12:46:42;24.80;38.70
39021;DHT22;25188;51.958;5.842;2024-03-02T12:49:13;24.30;39.20
39021;DHT22;25188;51.958;5.842;2024-03-02T12:51:40;24.00;39.90
39021;DHT22;25188;51.958;5.842;2024-03-02T12:54:10;24.20;40.60
39021;DHT22;25188;51.958;5.842;2024-03-02T12:56:41;24.50;40.40
39021;DHT22;25188;51.958;5.842;2024-03-02T12:59:18;24.80;39.90
39021;DHT22;25188;51.958;5.842;2024-03-02T13:01:55;25.10;40.20
39021;DHT22;25188;51.958;5.842;2024-03-02T13:04:25;25.20;39.30
39021;DHT22;25188;51.958;5.842;2024-03-02T13:06:51;25.10;39.80
39021;DHT22;25188;51.958;5.842;2024-03-02T13:09:18;25.20;39.70
39021;DHT22;25188;51.958;5.842;2024-03-02T13:11:43;25.20;39.50
39021;DHT22;25188;51.958;5.842;2024-03-02T13:14:11;25.20;39.50
39021;DHT22;25188;51.958;5.842;2024-03-02T13:16:40;25.20;39.60
39021;DHT22;25188;51.958;5.842;2024-03-02T13:19:12;25.20;39.40
39021;DHT22;25188;51.958;5.842;2024-03-02T13:21:38;25.30;39.50
39021;DHT22;25188;51.958;5.842;2024-03-02T13:24:05;25.50;39.30
39021;DHT22;25188;51.958;5.842;2024-03-02T13:26:31;25.60;39.40
39021;DHT22;25188;51.958;5.842;2024-03-02T13:28:57;25.80;39.50
39021;DHT22;25188;51.958;5.842;2024-03-02T13:31:22;25.80;39.50
39021;DHT22;25188;51.958;5.842;2024-03-02T13:33:49;25.60;40.10
39021;DHT22;25188;51.958;5.842;2024-03-02T13:36:15;25.70;40.40
39021;DHT22;25188;51.958;5.842;2024-03-02T13:38:41;26.00;40.40
39021;DHT22;25188;51.958;5.842;2024-03-02T13:41:10;26.10;40.50
39021;DHT22;25188;51.958;5.842;2024-03-02T13:43:37;26.20;39.80
39021;DHT22;25188;51.958;5.842;2024-03-02T13:46:04;26.00;40.10
39021;DHT22;25188;51.958;5.842;2024-03-02T13:48:30;25.80;39.30
39021;DHT22;25188;51.958;5.842;2024-03-02T13:50:56;25.60;39.70
39021;DHT22;25188;51.958;5.842;2024-03-02T13:53:22;25.60;39.50
39021;DHT22;25188;51.958;5.842;2024-03-02T13:55:49;25.50;39.60
39021;DHT22;25188;51.958;5.842;2024-03-02T13:58:16;25.50;39.70
39021;DHT22;25188;51.958;5.842;2024-03-02T14:00:44;25.60;39.80
39021;DHT22;25188;51.958;5.842;2024-03-02T14:03:13;25.60;40.30
39021;DHT22;25188;51.958;5.842;2024-03-02T14:05:38;25.50;39.60
39021;DHT22;25188;51.958;5.842;2024-03-02T14:08:04;25.40;40.30
39021;DHT22;25188;51.958;5.842;2024-03-02T14:10:30;25.10;39.50
39021;DHT22;25188;51.958;5.842;2024-03-02T14:12:56;24.90;39.70
39021;DHT22;25188;51.958;5.842;2024-03-02T14:15:23;24.50;39.90
39021;DHT22;25188;51.958;5.842;2024-03-02T14:17:49;24.10;40.40
39021;DHT22;25188;51.958;5.842;2024-03-02T14:20:15;23.90;41.30
39021;DHT22;25188;51.958;5.842;2024-03-02T14:22:47;24.00;41.60
39021;DHT22;25188;51.958;5.842;2024-03-02T14:25:13;24.30;41.50
39021;DHT22;25188;51.958;5.842;2024-03-02T14:27:39;24.60;41.40
39021;DHT22;25188;51.958;5.842;2024-03-02T14:30:05;25.00;41.10
39021;DHT22;25188;51.958;5.842;2024-03-02T14:32:32;25.20;40.40
39021;DHT22;25188;51.958;5.842;2024-03-02T14:34:58;25.40;40.00
39021;DHT22;25188;51.958;5.842;2024-03-02T14:37:23;25.60;40.00
39021;DHT22;25188;51.958;5.842;2024-03-02T14:39:49;25.70;39.50
39021;DHT22;25188;51.958;5.842;2024-03-02T14:42:15;25.60;39.30
39021;DHT22;25188;51.958;5.842;2024-03-02T14:44:41;25.60;39.20
39021;DHT22;25188;51.958;5.842;2024-03-02T14:47:08;25.50;38.90
39021;DHT22;25188;51.958;5.842;2024-03-02T14:49:33;25.50;38.90
39021;DHT22;25188;51.958;5.842;2024-03-02T14:52:02;25.50;39.10
39021;DHT22;25188;51.958;5.842;2024-03-02T14:54:28;25.50;39.30
39021;DHT22;25188;51.958;5.842;2024-03-02T14:56:54;25.50;39.10
39021;DHT22;25188;51.958;5.842;2024-03-02T14:59:22;25.50;39.30
39021;DHT22;25188;51.958;5.842;2024-03-02T15:01:48;25.50;39.60
39021;DHT22;25188;51.958;5.842;2024-03-02T15:04:15;25.70;39.90
39021;DHT22;25188;51.958;5.842;2024-03-02T15:06:45;25.40;39.50
39021;DHT22;25188;51.958;5.842;2024-03-02T15:09:14;24.90;39.90
39021;DHT22;25188;51.958;5.842;2024-03-02T15:11:44;24.30;40.60
39021;DHT22;25188;51.958;5.842;2024-03-02T15:14:10;23.60;41.30
39021;DHT22;25188;51.958;5.842;2024-03-02T15:16:37;22.90;42.20
39021;DHT22;25188;51.958;5.842;2024-03-02T15:19:03;22.20;43.40
39021;DHT22;25188;51.958;5.842;2024-03-02T15:21:28;21.60;44.40
39021;DHT22;25188;51.958;5.842;2024-03-02T15:23:54;21.00;45.50
39021;DHT22;25188;51.958;5.842;2024-03-02T15:26:23;20.60;46.30
39021;DHT22;25188;51.958;5.842;2024-03-02T15:28:51;20.70;46.90
39021;DHT22;25188;51.958;5.842;2024-03-02T15:31:20;21.00;47.00
39021;DHT22;25188;51.958;5.842;2024-03-02T15:33:46;21.30;46.80
39021;DHT22;25188;51.958;5.842;2024-03-02T15:36:12;21.80;46.70
39021;DHT22;25188;51.958;5.842;2024-03-02T15:38:38;22.10;46.30
39021;DHT22;25188;51.958;5.842;2024-03-02T15:41:04;22.40;46.10
39021;DHT22;25188;51.958;5.842;2024-03-02T15:43:30;22.60;45.80
39021;DHT22;25188;51.958;5.842;2024-03-02T15:45:57;22.60;45.50